Wetterdaten: Woche 14.04.14 - 20.04.14 (KW16)
Datum Zeit Temp. A. Feuchte A. Luftdruck Regen Wind Richtung Sonnenschein ET UV Solar Taupunkt Windchill Windben
14.04.2014 00:00 8,5 C 66 % 1015,3 hPa 0,0 l/m 4,2 km/h (1 Bft) W-NW 0,00 h 0,025 mm 0,0 UV-I 0 W/m 2,6 C 8,5 C 6,6 km/h (2 Bft)
14.04.2014 01:00 8,4 C 68 % 1014,8 hPa 0,0 l/m 4,8 km/h (1 Bft) W 0,00 h 0,025 mm 0,0 UV-I 0 W/m 2,8 C 8,4 C 7,1 km/h (2 Bft)
14.04.2014 02:00 8,4 C 69 % 1014,3 hPa 0,0 l/m 7,4 km/h (2 Bft) W-SW 0,00 h 0,025 mm 0,0 UV-I 0 W/m 3,0 C 7,5 C 11,4 km/h (2 Bft)
14.04.2014 03:00 8,1 C 71 % 1013,6 hPa 0,0 l/m 6,7 km/h (2 Bft) W-SW 0,00 h 0,025 mm 0,0 UV-I 0 W/m 3,2 C 7,5 C 10,1 km/h (2 Bft)
14.04.2014 04:00 7,9 C 73 % 1013,1 hPa 0,0 l/m 7,6 km/h (2 Bft) W-SW 0,00 h 0,025 mm 0,0 UV-I 0 W/m 3,3 C 6,8 C 11,7 km/h (2 Bft)
14.04.2014 05:00 7,5 C 73 % 1012,5 hPa 0,0 l/m 8,3 km/h (2 Bft) W-SW 0,00 h 0,025 mm 0,0 UV-I 0 W/m 3,0 C 6,0 C 13,0 km/h (3 Bft)
14.04.2014 06:00 7,3 C 74 % 1012,2 hPa 0,0 l/m 11,6 km/h (2 Bft) W 0,00 h 0,025 mm 0,0 UV-I 5 W/m 3,0 C 3,8 C 18,3 km/h (3 Bft)
14.04.2014 07:00 7,5 C 70 % 1012,2 hPa 0,0 l/m 12,5 km/h (3 Bft) W-SW 0,00 h 0,025 mm 0,0 UV-I 10 W/m 2,4 C 3,5 C 19,9 km/h (4 Bft)
14.04.2014 08:00 7,2 C 76 % 1011,5 hPa 0,0 l/m 11,6 km/h (2 Bft) W-SW 0,22 h 0,051 mm 0,0 UV-I 30 W/m 3,2 C 3,6 C 18,2 km/h (3 Bft)
14.04.2014 09:00 7,2 C 82 % 1011,5 hPa 0,0 l/m 15,3 km/h (3 Bft) W-SW 0,95 h 0,051 mm 0,6 UV-I 86 W/m 4,2 C 1,7 C 23,7 km/h (4 Bft)
14.04.2014 10:00 7,3 C 84 % 1011,3 hPa 0,6 l/m 12,3 km/h (3 Bft) W-NW 0,78 h 0,051 mm 1,0 UV-I 112 W/m 4,7 C 3,4 C 19,0 km/h (3 Bft)
14.04.2014 11:00 8,8 C 78 % 1011,0 hPa 0,0 l/m 15,2 km/h (3 Bft) W-NW 1,00 h 0,000 mm 2,6 UV-I 438 W/m 5,0 C 3,9 C 22,6 km/h (4 Bft)
14.04.2014 12:00 7,1 C 76 % 1011,5 hPa 0,4 l/m 18,0 km/h (3 Bft) NW 0,77 h 0,152 mm 1,6 UV-I 171 W/m 3,2 C 0,6 C 27,2 km/h (4 Bft)
14.04.2014 13:00 7,1 C 80 % 1012,0 hPa 0,4 l/m 12,0 km/h (2 Bft) NW 1,00 h 0,127 mm 2,4 UV-I 408 W/m 3,8 C 3,5 C 19,1 km/h (3 Bft)
14.04.2014 14:00 8,7 C 75 % 1012,0 hPa 0,0 l/m 11,2 km/h (2 Bft) NW 1,00 h 0,203 mm 3,4 UV-I 585 W/m 4,4 C 5,8 C 17,0 km/h (3 Bft)
14.04.2014 15:00 10,0 C 59 % 1011,5 hPa 0,0 l/m 19,2 km/h (3 Bft) W-NW 1,00 h 0,279 mm 2,5 UV-I 454 W/m 2,2 C 3,7 C 29,5 km/h (5 Bft)
14.04.2014 16:00 10,9 C 49 % 1011,5 hPa 0,0 l/m 21,0 km/h (4 Bft) W-NW 1,00 h 0,305 mm 2,2 UV-I 513 W/m 0,6 C 4,4 C 32,0 km/h (5 Bft)
14.04.2014 17:00 9,3 C 58 % 1012,1 hPa 0,0 l/m 21,2 km/h (4 Bft) W-NW 1,00 h 0,356 mm 0,8 UV-I 179 W/m 1,3 C 2,1 C 31,7 km/h (5 Bft)
14.04.2014 18:00 7,8 C 66 % 1012,7 hPa 0,0 l/m 17,0 km/h (3 Bft) W-NW 0,82 h 0,178 mm 0,6 UV-I 80 W/m 1,9 C 1,9 C 25,3 km/h (4 Bft)
14.04.2014 19:00 4,7 C 83 % 1013,9 hPa 0,8 l/m 12,6 km/h (3 Bft) NW 0,00 h 0,102 mm 0,0 UV-I 6 W/m 2,1 C 0,7 C 19,5 km/h (3 Bft)
14.04.2014 20:00 3,5 C 88 % 1014,5 hPa 0,0 l/m 3,0 km/h (1 Bft) W 0,00 h 0,025 mm 0,0 UV-I 0 W/m 1,8 C 3,4 C 5,0 km/h (1 Bft)
14.04.2014 21:00 3,5 C 87 % 1015,1 hPa 0,4 l/m 7,4 km/h (2 Bft) W-SW 0,00 h 0,000 mm 0,0 UV-I 0 W/m 1,6 C 1,9 C 11,5 km/h (2 Bft)
14.04.2014 22:00 3,1 C 87 % 1015,6 hPa 0,0 l/m 7,2 km/h (2 Bft) NW 0,00 h 0,000 mm 0,0 UV-I 0 W/m 1,1 C 2,0 C 10,7 km/h (2 Bft)
14.04.2014 23:00 2,7 C 87 % 1015,9 hPa 0,2 l/m 8,7 km/h (2 Bft) NW 0,00 h 0,025 mm 0,0 UV-I 0 W/m 0,8 C 0,5 C 13,1 km/h (3 Bft)
15.04.2014 00:00 1,9 C 90 % 1016,3 hPa 0,2 l/m 6,6 km/h (2 Bft) NW 0,00 h 0,025 mm 0,0 UV-I 0 W/m 0,5 C 0,8 C 10,1 km/h (2 Bft)
15.04.2014 01:00 1,7 C 90 % 1016,9 hPa 0,0 l/m 1,4 km/h (1 Bft) NW 0,00 h 0,000 mm 0,0 UV-I 0 W/m 0,2 C 1,7 C 2,9 km/h (1 Bft)
15.04.2014 02:00 1,6 C 90 % 1016,9 hPa 0,0 l/m 3,1 km/h (1 Bft) W 0,00 h 0,000 mm 0,0 UV-I 0 W/m 0,1 C 1,6 C 5,2 km/h (1 Bft)
15.04.2014 03:00 1,5 C 90 % 1017,0 hPa 0,0 l/m 7,3 km/h (2 Bft) W-NW 0,00 h 0,000 mm 0,0 UV-I 0 W/m 0,0 C 0,2 C 11,3 km/h (2 Bft)
15.04.2014 04:00 1,7 C 88 % 1017,3 hPa 0,0 l/m 6,9 km/h (2 Bft) W 0,00 h 0,000 mm 0,0 UV-I 0 W/m -0,0 C 0,7 C 10,9 km/h (2 Bft)
15.04.2014 05:00 1,7 C 88 % 1017,6 hPa 0,0 l/m 7,1 km/h (2 Bft) W 0,00 h 0,000 mm 0,0 UV-I 0 W/m -0,1 C 0,6 C 11,2 km/h (2 Bft)
15.04.2014 06:00 1,8 C 88 % 1018,3 hPa 0,0 l/m 5,5 km/h (1 Bft) W 0,00 h 0,000 mm 0,0 UV-I 5 W/m 0,0 C 1,6 C 8,8 km/h (2 Bft)
15.04.2014 07:00 2,0 C 88 % 1019,0 hPa 0,0 l/m 6,5 km/h (2 Bft) W 0,00 h 0,000 mm 0,0 UV-I 17 W/m 0,2 C 1,3 C 10,1 km/h (2 Bft)
15.04.2014 08:00 2,4 C 88 % 1019,6 hPa 0,0 l/m 7,1 km/h (2 Bft) W-NW 0,10 h 0,025 mm 0,0 UV-I 37 W/m 0,6 C 1,2 C 11,1 km/h (2 Bft)
15.04.2014 09:00 3,2 C 84 % 1020,2 hPa 0,0 l/m 10,6 km/h (2 Bft) W-NW 1,00 h 0,025 mm 0,9 UV-I 117 W/m 0,8 C -0,1 C 15,5 km/h (3 Bft)
15.04.2014 10:00 3,8 C 82 % 1020,7 hPa 0,0 l/m 12,4 km/h (3 Bft) NW 1,00 h 0,051 mm 0,7 UV-I 114 W/m 1,0 C -0,7 C 18,0 km/h (3 Bft)
15.04.2014 11:00 4,0 C 79 % 1021,3 hPa 0,0 l/m 11,5 km/h (2 Bft) W-NW 1,00 h 0,051 mm 0,9 UV-I 122 W/m 0,7 C 0,1 C 17,1 km/h (3 Bft)
15.04.2014 12:00 4,1 C 77 % 1021,9 hPa 0,0 l/m 9,9 km/h (2 Bft) NW 0,98 h 0,076 mm 0,7 UV-I 93 W/m 0,5 C 1,3 C 14,7 km/h (3 Bft)
15.04.2014 13:00 4,5 C 76 % 1022,4 hPa 0,0 l/m 9,2 km/h (2 Bft) W-NW 0,92 h 0,051 mm 1,0 UV-I 115 W/m 0,7 C 2,1 C 13,5 km/h (3 Bft)
15.04.2014 14:00 4,9 C 75 % 1022,5 hPa 0,0 l/m 9,7 km/h (2 Bft) W-NW 1,00 h 0,076 mm 0,7 UV-I 95 W/m 0,8 C 2,3 C 14,4 km/h (3 Bft)
15.04.2014 15:00 5,2 C 71 % 1022,6 hPa 0,0 l/m 9,0 km/h (2 Bft) W-NW 1,00 h 0,051 mm 0,7 UV-I 99 W/m 0,5 C 3,1 C 13,6 km/h (3 Bft)
15.04.2014 16:00 5,4 C 70 % 1022,6 hPa 0,0 l/m 11,3 km/h (2 Bft) NW 0,90 h 0,076 mm 0,6 UV-I 68 W/m 0,4 C 1,7 C 16,8 km/h (3 Bft)
15.04.2014 17:00 4,9 C 71 % 1023,0 hPa 0,0 l/m 12,0 km/h (2 Bft) NW 0,35 h 0,051 mm 0,0 UV-I 46 W/m -0,0 C 0,8 C 17,6 km/h (3 Bft)
15.04.2014 18:00 4,5 C 70 % 1023,2 hPa 0,0 l/m 10,0 km/h (2 Bft) NW 0,00 h 0,051 mm 0,0 UV-I 28 W/m -0,4 C 1,6 C 13,9 km/h (3 Bft)
15.04.2014 19:00 4,1 C 73 % 1023,2 hPa 0,0 l/m 5,3 km/h (1 Bft) W-NW 0,00 h 0,051 mm 0,0 UV-I 18 W/m -0,3 C 3,8 C 8,1 km/h (2 Bft)
15.04.2014 20:00 3,3 C 75 % 1024,0 hPa 0,0 l/m 2,8 km/h (1 Bft) W-NW 0,00 h 0,025 mm 0,0 UV-I 0 W/m -0,6 C 3,3 C 4,8 km/h (1 Bft)
15.04.2014 21:00 2,6 C 79 % 1024,6 hPa 0,0 l/m 0,2 km/h (0 Bft) W-NW 0,00 h 0,000 mm 0,0 UV-I 0 W/m -0,6 C 2,6 C 0,5 km/h (0 Bft)
15.04.2014 22:00 2,9 C 81 % 1025,0 hPa 0,0 l/m 2,6 km/h (1 Bft) NW 0,00 h 0,000 mm 0,0 UV-I 0 W/m -0,2 C 2,8 C 4,4 km/h (1 Bft)
15.04.2014 23:00 2,6 C 86 % 1025,4 hPa 0,0 l/m 2,6 km/h (1 Bft) W-NW 0,00 h 0,025 mm 0,0 UV-I 0 W/m 0,5 C 2,6 C 4,3 km/h (1 Bft)
16.04.2014 00:00 2,2 C 89 % 1025,7 hPa 0,6 l/m 1,5 km/h (1 Bft) NW 0,00 h 0,000 mm 0,0 UV-I 0 W/m 0,6 C 2,2 C 2,6 km/h (1 Bft)
16.04.2014 01:00 1,2 C 93 % 1026,0 hPa 0,2 l/m 0,5 km/h (0 Bft) NW 0,00 h 0,000 mm 0,0 UV-I 0 W/m 0,2 C 1,2 C 1,3 km/h (1 Bft)
16.04.2014 02:00 1,3 C 94 % 1026,2 hPa 0,4 l/m 0,7 km/h (0 Bft) NW 0,00 h 0,000 mm 0,0 UV-I 0 W/m 0,4 C 1,3 C 1,3 km/h (1 Bft)
16.04.2014 03:00 1,7 C 95 % 1026,5 hPa 0,2 l/m 0,2 km/h (0 Bft) NW 0,00 h 0,000 mm 0,0 UV-I 0 W/m 1,0 C 1,7 C 0,9 km/h (0 Bft)
16.04.2014 04:00 1,9 C 95 % 1027,0 hPa 0,0 l/m 1,3 km/h (1 Bft) NW 0,00 h 0,000 mm 0,0 UV-I 0 W/m 1,2 C 1,9 C 2,6 km/h (1 Bft)
16.04.2014 05:00 2,1 C 94 % 1027,3 hPa 0,2 l/m 2,9 km/h (1 Bft) N 0,00 h 0,000 mm 0,0 UV-I 0 W/m 1,2 C 2,1 C 5,2 km/h (1 Bft)
16.04.2014 06:00 1,7 C 93 % 1027,7 hPa 0,0 l/m 5,0 km/h (1 Bft) N 0,00 h 0,000 mm 0,0 UV-I 11 W/m 0,8 C 0,8 C 8,0 km/h (2 Bft)
16.04.2014 07:00 2,7 C 93 % 1028,2 hPa 0,0 l/m 5,4 km/h (1 Bft) N 0,08 h 0,000 mm 0,0 UV-I 37 W/m 1,7 C 2,2 C 8,6 km/h (2 Bft)
16.04.2014 08:00 3,5 C 90 % 1028,9 hPa 0,0 l/m 2,6 km/h (1 Bft) N 0,92 h 0,025 mm 0,7 UV-I 88 W/m 2,0 C 3,4 C 4,8 km/h (1 Bft)
16.04.2014 09:00 4,7 C 85 % 1029,2 hPa 0,0 l/m 3,9 km/h (1 Bft) N 1,00 h 0,025 mm 1,2 UV-I 212 W/m 2,5 C 4,4 C 7,7 km/h (2 Bft)
16.04.2014 10:00 6,5 C 76 % 1029,6 hPa 0,0 l/m 8,6 km/h (2 Bft) N 1,00 h 0,102 mm 1,8 UV-I 321 W/m 2,6 C 4,5 C 13,6 km/h (3 Bft)
16.04.2014 11:00 6,7 C 74 % 1029,8 hPa 0,0 l/m 11,1 km/h (2 Bft) N 1,00 h 0,153 mm 2,1 UV-I 336 W/m 2,5 C 3,3 C 16,8 km/h (3 Bft)
16.04.2014 12:00 8,4 C 66 % 1029,6 hPa 0,0 l/m 13,8 km/h (3 Bft) N-NO 1,00 h 0,152 mm 4,4 UV-I 699 W/m 2,5 C 3,8 C 20,2 km/h (4 Bft)
16.04.2014 13:00 8,7 C 61 % 1029,5 hPa 0,0 l/m 10,6 km/h (2 Bft) N 1,00 h 0,356 mm 3,0 UV-I 405 W/m 1,6 C 5,9 C 16,4 km/h (3 Bft)
16.04.2014 14:00 8,8 C 58 % 1029,4 hPa 0,0 l/m 10,4 km/h (2 Bft) N-NO 1,00 h 0,229 mm 2,6 UV-I 340 W/m 1,0 C 6,2 C 15,8 km/h (3 Bft)
16.04.2014 15:00 9,8 C 53 % 1029,2 hPa 0,0 l/m 11,4 km/h (2 Bft) N 1,00 h 0,203 mm 2,8 UV-I 520 W/m 0,6 C 6,7 C 17,4 km/h (3 Bft)
16.04.2014 16:00 9,8 C 51 % 1029,0 hPa 0,0 l/m 11,6 km/h (2 Bft) N-NO 1,00 h 0,279 mm 1,8 UV-I 386 W/m 0,1 C 6,6 C 17,4 km/h (3 Bft)
16.04.2014 17:00 9,6 C 47 % 1028,9 hPa 0,0 l/m 10,4 km/h (2 Bft) N 1,00 h 0,229 mm 1,1 UV-I 331 W/m -1,2 C 7,1 C 15,8 km/h (3 Bft)
16.04.2014 18:00 8,6 C 47 % 1028,8 hPa 0,0 l/m 7,7 km/h (2 Bft) O-NO 0,32 h 0,203 mm 0,6 UV-I 106 W/m -2,0 C 7,3 C 12,8 km/h (3 Bft)
16.04.2014 19:00 6,8 C 54 % 1029,0 hPa 0,0 l/m 2,8 km/h (1 Bft) O-NO 0,00 h 0,102 mm 0,0 UV-I 17 W/m -1,9 C 6,8 C 5,9 km/h (2 Bft)
16.04.2014 20:00 5,2 C 59 % 1029,4 hPa 0,0 l/m 0,6 km/h (0 Bft) NO 0,00 h 0,025 mm 0,0 UV-I 5 W/m -2,1 C 5,2 C 1,8 km/h (1 Bft)
16.04.2014 21:00 3,5 C 66 % 1029,8 hPa 0,0 l/m 0,3 km/h (0 Bft) NO 0,00 h 0,000 mm 0,0 UV-I 0 W/m -2,2 C 3,5 C 1,2 km/h (1 Bft)
16.04.2014 22:00 1,6 C 76 % 1029,7 hPa 0,0 l/m 0,1 km/h (0 Bft) NO 0,00 h 0,025 mm 0,0 UV-I 0 W/m -2,1 C 1,6 C 0,6 km/h (0 Bft)
16.04.2014 23:00 0,1 C 84 % 1029,9 hPa 0,0 l/m 0,0 km/h (0 Bft) N 0,00 h 0,000 mm 0,0 UV-I 0 W/m -2,3 C 0,1 C 0,2 km/h (0 Bft)
17.04.2014 00:00 -0,8 C 88 % 1029,7 hPa 0,0 l/m 0,0 km/h (0 Bft) N 0,00 h 0,000 mm 0,0 UV-I 0 W/m -2,6 C -0,8 C 0,2 km/h (0 Bft)
17.04.2014 01:00 -1,1 C 90 % 1029,8 hPa 0,0 l/m 0,8 km/h (0 Bft) N 0,00 h 0,000 mm 0,0 UV-I 0 W/m -2,6 C -1,1 C 1,9 km/h (1 Bft)
17.04.2014 02:00 -1,9 C 91 % 1029,5 hPa 0,0 l/m 0,0 km/h (0 Bft) N 0,00 h 0,000 mm 0,0 UV-I 0 W/m -3,2 C -1,9 C 0,2 km/h (0 Bft)
17.04.2014 03:00 -2,3 C 91 % 1029,2 hPa 0,0 l/m 0,2 km/h (0 Bft) N 0,00 h 0,000 mm 0,0 UV-I 0 W/m -3,5 C -2,3 C 0,6 km/h (0 Bft)
17.04.2014 04:00 -2,8 C 92 % 1028,6 hPa 0,0 l/m 0,0 km/h (0 Bft) N 0,00 h 0,000 mm 0,0 UV-I 0 W/m -3,9 C -2,8 C 0,2 km/h (0 Bft)
17.04.2014 05:00 -3,2 C 92 % 1028,1 hPa 0,0 l/m 0,0 km/h (0 Bft) N 0,00 h 0,000 mm 0,0 UV-I 0 W/m -4,4 C -3,2 C 0,1 km/h (0 Bft)
17.04.2014 06:00 -3,1 C 91 % 1028,0 hPa 0,0 l/m 0,2 km/h (0 Bft) N-NW 0,00 h 0,000 mm 0,0 UV-I 12 W/m -4,3 C -3,1 C 0,5 km/h (0 Bft)
17.04.2014 07:00 -2,3 C 92 % 1028,1 hPa 0,0 l/m 0,2 km/h (0 Bft) N-NW 0,80 h 0,000 mm 0,0 UV-I 63 W/m -3,5 C -2,3 C 0,5 km/h (0 Bft)
17.04.2014 08:00 1,0 C 87 % 1028,1 hPa 0,0 l/m 0,3 km/h (0 Bft) N-NW 1,00 h 0,025 mm 1,3 UV-I 136 W/m -1,0 C 1,0 C 0,8 km/h (0 Bft)
17.04.2014 09:00 6,3 C 62 % 1027,6 hPa 0,0 l/m 1,7 km/h (1 Bft) SO 1,00 h 0,152 mm 2,1 UV-I 537 W/m -0,5 C 6,2 C 3,8 km/h (1 Bft)
17.04.2014 10:00 8,1 C 46 % 1027,1 hPa 0,0 l/m 5,6 km/h (1 Bft) SO 1,00 h 0,229 mm 3,2 UV-I 676 W/m -2,9 C 7,6 C 9,3 km/h (2 Bft)
17.04.2014 11:00 9,4 C 43 % 1026,2 hPa 0,0 l/m 5,6 km/h (1 Bft) S-SO 1,00 h 0,331 mm 4,3 UV-I 774 W/m -2,5 C 8,8 C 9,1 km/h (2 Bft)
17.04.2014 12:00 10,4 C 41 % 1025,1 hPa 0,0 l/m 4,2 km/h (1 Bft) SO 1,00 h 0,381 mm 4,9 UV-I 780 W/m -2,3 C 10,2 C 7,5 km/h (2 Bft)
17.04.2014 13:00 11,5 C 40 % 1023,9 hPa 0,0 l/m 5,3 km/h (1 Bft) O 1,00 h 0,381 mm 5,1 UV-I 809 W/m -1,7 C 11,1 C 9,0 km/h (2 Bft)
17.04.2014 14:00 12,5 C 38 % 1022,6 hPa 0,0 l/m 4,3 km/h (1 Bft) N 1,00 h 0,432 mm 4,7 UV-I 777 W/m -1,4 C 12,3 C 8,0 km/h (2 Bft)
17.04.2014 15:00 13,0 C 37 % 1021,4 hPa 0,0 l/m 4,3 km/h (1 Bft) W-NW 1,00 h 0,406 mm 3,6 UV-I 662 W/m -1,4 C 12,8 C 7,2 km/h (2 Bft)
17.04.2014 16:00 12,8 C 35 % 1020,2 hPa 0,0 l/m 7,6 km/h (2 Bft) S-SO 1,00 h 0,356 mm 2,4 UV-I 528 W/m -2,3 C 11,6 C 12,3 km/h (3 Bft)
17.04.2014 17:00 12,5 C 37 % 1019,2 hPa 0,0 l/m 8,6 km/h (2 Bft) SW 1,00 h 0,330 mm 1,3 UV-I 370 W/m -1,7 C 11,2 C 13,0 km/h (3 Bft)
17.04.2014 18:00 11,6 C 38 % 1018,5 hPa 0,0 l/m 7,0 km/h (2 Bft) SW 0,65 h 0,254 mm 0,7 UV-I 94 W/m -2,3 C 10,8 C 10,8 km/h (2 Bft)
17.04.2014 19:00 10,1 C 41 % 1018,1 hPa 0,0 l/m 4,3 km/h (1 Bft) S 0,00 h 0,102 mm 0,0 UV-I 25 W/m -2,6 C 10,0 C 6,6 km/h (2 Bft)
17.04.2014 20:00 8,1 C 49 % 1017,5 hPa 0,0 l/m 3,7 km/h (1 Bft) S-SO 0,00 h 0,051 mm 0,0 UV-I 0 W/m -1,9 C 8,1 C 5,0 km/h (1 Bft)
17.04.2014 21:00 6,8 C 58 % 1017,1 hPa 0,0 l/m 3,5 km/h (1 Bft) SO 0,00 h 0,025 mm 0,0 UV-I 0 W/m -1,0 C 6,8 C 5,0 km/h (1 Bft)
17.04.2014 22:00 5,8 C 60 % 1016,5 hPa 0,0 l/m 2,9 km/h (1 Bft) SO 0,00 h 0,025 mm 0,0 UV-I 0 W/m -1,4 C 5,8 C 4,7 km/h (1 Bft)
17.04.2014 23:00 5,3 C 59 % 1015,5 hPa 0,0 l/m 3,3 km/h (1 Bft) S-SO 0,00 h 0,025 mm 0,0 UV-I 0 W/m -2,1 C 5,3 C 5,0 km/h (1 Bft)
18.04.2014 00:00 3,4 C 67 % 1014,8 hPa 0,0 l/m 0,6 km/h (0 Bft) N-NO 0,00 h 0,025 mm 0,0 UV-I 0 W/m -2,1 C 3,4 C 1,3 km/h (1 Bft)
18.04.2014 01:00 1,8 C 76 % 1014,1 hPa 0,0 l/m 0,0 km/h (0 Bft) N-NO 0,00 h 0,025 mm 0,0 UV-I 0 W/m -2,0 C 1,8 C 0,2 km/h (0 Bft)
18.04.2014 02:00 0,8 C 85 % 1013,2 hPa 0,0 l/m 0,0 km/h (0 Bft) O 0,00 h 0,000 mm 0,0 UV-I 0 W/m -1,5 C 0,8 C 0,1 km/h (0 Bft)
18.04.2014 03:00 0,3 C 86 % 1012,4 hPa 0,0 l/m 0,1 km/h (0 Bft) S-SO 0,00 h 0,000 mm 0,0 UV-I 0 W/m -1,7 C 0,3 C 0,6 km/h (0 Bft)
18.04.2014 04:00 0,5 C 86 % 1011,6 hPa 0,0 l/m 0,1 km/h (0 Bft) O-NO 0,00 h 0,000 mm 0,0 UV-I 0 W/m -1,6 C 0,5 C 0,5 km/h (0 Bft)
18.04.2014 05:00 1,2 C 84 % 1010,6 hPa 0,0 l/m 0,2 km/h (0 Bft) O-NO 0,00 h 0,000 mm 0,0 UV-I 0 W/m -1,2 C 1,2 C 0,9 km/h (0 Bft)
18.04.2014 06:00 2,7 C 81 % 1010,5 hPa 0,0 l/m 3,3 km/h (1 Bft) N 0,00 h 0,000 mm 0,0 UV-I 8 W/m -0,3 C 2,7 C 4,9 km/h (1 Bft)
18.04.2014 07:00 2,9 C 86 % 1010,4 hPa 0,8 l/m 1,3 km/h (1 Bft) O-SO 0,00 h 0,000 mm 0,0 UV-I 18 W/m 0,8 C 2,9 C 2,6 km/h (1 Bft)
18.04.2014 08:00 3,4 C 89 % 1009,9 hPa 0,4 l/m 1,4 km/h (1 Bft) S-SO 0,00 h 0,000 mm 0,0 UV-I 26 W/m 1,7 C 3,4 C 2,8 km/h (1 Bft)
18.04.2014 09:00 3,7 C 90 % 1009,5 hPa 0,6 l/m 1,3 km/h (1 Bft) S 0,30 h 0,000 mm 0,0 UV-I 44 W/m 2,2 C 3,7 C 3,1 km/h (1 Bft)
18.04.2014 10:00 4,0 C 92 % 1009,6 hPa 2,0 l/m 4,3 km/h (1 Bft) W-NW 0,45 h 0,025 mm 0,6 UV-I 60 W/m 2,8 C 3,5 C 6,6 km/h (2 Bft)
18.04.2014 11:00 3,5 C 91 % 1010,3 hPa 1,2 l/m 9,5 km/h (2 Bft) N 0,98 h 0,025 mm 0,8 UV-I 108 W/m 2,3 C 0,8 C 14,6 km/h (3 Bft)
18.04.2014 12:00 3,3 C 92 % 1010,7 hPa 0,6 l/m 4,0 km/h (1 Bft) N 1,00 h 0,051 mm 1,0 UV-I 153 W/m 2,1 C 3,1 C 6,3 km/h (2 Bft)
18.04.2014 13:00 4,5 C 91 % 1010,8 hPa 0,2 l/m 3,7 km/h (1 Bft) N 1,00 h 0,051 mm 1,9 UV-I 291 W/m 3,1 C 4,3 C 6,3 km/h (2 Bft)
18.04.2014 14:00 6,3 C 83 % 1010,6 hPa 0,0 l/m 4,9 km/h (1 Bft) N 1,00 h 0,127 mm 2,0 UV-I 328 W/m 3,7 C 6,0 C 8,2 km/h (2 Bft)
18.04.2014 15:00 6,5 C 80 % 1010,6 hPa 0,0 l/m 3,9 km/h (1 Bft) N 1,00 h 0,152 mm 1,5 UV-I 257 W/m 3,2 C 6,3 C 6,7 km/h (2 Bft)
18.04.2014 16:00 8,0 C 73 % 1010,7 hPa 0,0 l/m 3,5 km/h (1 Bft) N 1,00 h 0,127 mm 1,8 UV-I 426 W/m 3,4 C 7,9 C 6,1 km/h (2 Bft)
18.04.2014 17:00 7,9 C 70 % 1010,8 hPa 0,0 l/m 3,8 km/h (1 Bft) N 0,97 h 0,203 mm 1,0 UV-I 223 W/m 2,8 C 7,7 C 6,3 km/h (2 Bft)
18.04.2014 18:00 5,6 C 81 % 1011,5 hPa 0,0 l/m 8,8 km/h (2 Bft) N 0,22 h 0,102 mm 0,5 UV-I 45 W/m 2,5 C 3,2 C 13,6 km/h (3 Bft)
18.04.2014 19:00 4,8 C 86 % 1012,2 hPa 0,0 l/m 3,9 km/h (1 Bft) N-NW 0,00 h 0,025 mm 0,0 UV-I 24 W/m 2,6 C 4,7 C 6,1 km/h (2 Bft)
18.04.2014 20:00 4,3 C 88 % 1012,8 hPa 0,0 l/m 0,8 km/h (0 Bft) N 0,00 h 0,025 mm 0,0 UV-I 5 W/m 2,4 C 4,3 C 1,8 km/h (1 Bft)
18.04.2014 21:00 3,5 C 90 % 1013,5 hPa 0,0 l/m 0,7 km/h (0 Bft) N 0,00 h 0,000 mm 0,0 UV-I 0 W/m 2,0 C 3,5 C 1,8 km/h (1 Bft)
18.04.2014 22:00 2,3 C 92 % 1013,8 hPa 0,0 l/m 1,7 km/h (1 Bft) N 0,00 h 0,000 mm 0,0 UV-I 0 W/m 1,1 C 2,3 C 3,3 km/h (1 Bft)
18.04.2014 23:00 1,3 C 93 % 1014,2 hPa 0,0 l/m 0,4 km/h (0 Bft) N 0,00 h 0,000 mm 0,0 UV-I 0 W/m 0,4 C 1,3 C 1,1 km/h (1 Bft)
19.04.2014 00:00 0,5 C 94 % 1014,6 hPa 0,0 l/m 0,1 km/h (0 Bft) N-NO 0,00 h 0,000 mm 0,0 UV-I 0 W/m -0,4 C 0,5 C 0,4 km/h (0 Bft)
19.04.2014 01:00 -0,2 C 94 % 1014,9 hPa 0,0 l/m 0,0 km/h (0 Bft) N 0,00 h 0,000 mm 0,0 UV-I 0 W/m -1,0 C -0,2 C 0,1 km/h (0 Bft)
19.04.2014 02:00 -0,6 C 94 % 1015,0 hPa 0,0 l/m 0,1 km/h (0 Bft) O-NO 0,00 h 0,000 mm 0,0 UV-I 0 W/m -1,3 C -0,6 C 0,3 km/h (0 Bft)
19.04.2014 03:00 -0,8 C 94 % 1014,9 hPa 0,0 l/m 0,3 km/h (0 Bft) N-NO 0,00 h 0,000 mm 0,0 UV-I 0 W/m -1,6 C -0,8 C 0,7 km/h (0 Bft)
19.04.2014 04:00 -0,7 C 95 % 1014,9 hPa 0,0 l/m 2,2 km/h (1 Bft) N 0,00 h 0,000 mm 0,0 UV-I 0 W/m -1,4 C -0,7 C 3,5 km/h (1 Bft)
19.04.2014 05:00 -0,3 C 95 % 1014,9 hPa 0,0 l/m 3,2 km/h (1 Bft) N 0,00 h 0,000 mm 0,0 UV-I 0 W/m -1,0 C -0,3 C 5,1 km/h (1 Bft)
19.04.2014 06:00 -0,1 C 95 % 1014,9 hPa 0,0 l/m 6,4 km/h (2 Bft) N 0,00 h 0,000 mm 0,0 UV-I 17 W/m -0,8 C -0,8 C 9,8 km/h (2 Bft)
19.04.2014 07:00 0,9 C 95 % 1015,2 hPa 0,0 l/m 8,3 km/h (2 Bft) N 0,78 h 0,000 mm 0,5 UV-I 75 W/m 0,3 C -1,2 C 12,1 km/h (2 Bft)
19.04.2014 08:00 2,9 C 92 % 1015,4 hPa 0,0 l/m 6,9 km/h (2 Bft) N 1,00 h 0,025 mm 0,9 UV-I 273 W/m 1,7 C 1,6 C 9,9 km/h (2 Bft)
19.04.2014 09:00 5,7 C 84 % 1015,4 hPa 0,0 l/m 10,2 km/h (2 Bft) N 1,00 h 0,102 mm 1,8 UV-I 487 W/m 3,2 C 2,9 C 14,8 km/h (3 Bft)
19.04.2014 10:00 6,8 C 83 % 1015,1 hPa 0,0 l/m 10,3 km/h (2 Bft) N 1,00 h 0,203 mm 1,7 UV-I 192 W/m 4,0 C 3,9 C 15,8 km/h (3 Bft)
19.04.2014 11:00 10,6 C 76 % 1014,6 hPa 0,2 l/m 9,1 km/h (2 Bft) N-NO 1,00 h 0,102 mm 2,6 UV-I 326 W/m 6,5 C 8,9 C 14,3 km/h (3 Bft)
19.04.2014 12:00 14,4 C 66 % 1013,8 hPa 0,0 l/m 8,8 km/h (2 Bft) NO 1,00 h 0,203 mm 4,0 UV-I 633 W/m 8,0 C 12,9 C 14,2 km/h (3 Bft)
19.04.2014 13:00 17,4 C 56 % 1012,8 hPa 0,0 l/m 11,9 km/h (2 Bft) O-NO 1,00 h 0,356 mm 4,4 UV-I 744 W/m 8,4 C 15,1 C 20,6 km/h (4 Bft)
19.04.2014 14:00 18,4 C 51 % 1012,2 hPa 0,0 l/m 11,7 km/h (2 Bft) O-NO 1,00 h 0,457 mm 4,2 UV-I 738 W/m 8,1 C 16,3 C 20,3 km/h (4 Bft)
19.04.2014 15:00 18,6 C 50 % 1011,6 hPa 0,0 l/m 12,6 km/h (3 Bft) O-NO 1,00 h 0,483 mm 3,2 UV-I 640 W/m 8,0 C 16,4 C 21,7 km/h (4 Bft)
19.04.2014 16:00 18,0 C 51 % 1011,4 hPa 0,0 l/m 9,6 km/h (2 Bft) O 1,00 h 0,432 mm 1,9 UV-I 411 W/m 7,8 C 16,6 C 16,9 km/h (3 Bft)
19.04.2014 17:00 17,4 C 54 % 1011,1 hPa 0,0 l/m 8,7 km/h (2 Bft) O-NO 0,85 h 0,279 mm 1,0 UV-I 226 W/m 7,8 C 16,2 C 16,1 km/h (3 Bft)
19.04.2014 18:00 16,3 C 57 % 1011,1 hPa 0,0 l/m 7,0 km/h (2 Bft) O-NO 1,00 h 0,178 mm 0,5 UV-I 91 W/m 7,8 C 15,6 C 13,6 km/h (3 Bft)
19.04.2014 19:00 14,9 C 62 % 1011,1 hPa 0,0 l/m 5,9 km/h (2 Bft) N-NO 0,08 h 0,102 mm 0,0 UV-I 27 W/m 7,6 C 14,4 C 11,3 km/h (2 Bft)
19.04.2014 20:00 13,9 C 66 % 1011,3 hPa 0,0 l/m 8,3 km/h (2 Bft) N-NO 0,00 h 0,051 mm 0,0 UV-I 5 W/m 7,6 C 12,7 C 14,1 km/h (3 Bft)
19.04.2014 21:00 12,6 C 72 % 1011,4 hPa 0,0 l/m 5,9 km/h (2 Bft) N-NO 0,00 h 0,051 mm 0,0 UV-I 0 W/m 7,8 C 12,1 C 9,8 km/h (2 Bft)
19.04.2014 22:00 13,6 C 66 % 1011,1 hPa 0,0 l/m 7,1 km/h (2 Bft) O-NO 0,00 h 0,025 mm 0,0 UV-I 0 W/m 7,4 C 12,6 C 12,3 km/h (3 Bft)
19.04.2014 23:00 13,0 C 67 % 1010,7 hPa 0,0 l/m 4,3 km/h (1 Bft) NO 0,00 h 0,051 mm 0,0 UV-I 0 W/m 7,0 C 12,9 C 8,5 km/h (2 Bft)
20.04.2014 00:00 12,8 C 68 % 1010,0 hPa 0,0 l/m 8,6 km/h (2 Bft) NO 0,00 h 0,025 mm 0,0 UV-I 0 W/m 7,0 C 11,3 C 15,6 km/h (3 Bft)
20.04.2014 01:00 12,4 C 68 % 1009,4 hPa 0,0 l/m 8,8 km/h (2 Bft) O-NO 0,00 h 0,051 mm 0,0 UV-I 0 W/m 6,6 C 10,7 C 15,5 km/h (3 Bft)
20.04.2014 02:00 11,6 C 70 % 1009,0 hPa 0,0 l/m 8,4 km/h (2 Bft) O-NO 0,00 h 0,051 mm 0,0 UV-I 0 W/m 6,3 C 10,3 C 14,7 km/h (3 Bft)
20.04.2014 03:00 10,6 C 74 % 1008,9 hPa 0,0 l/m 5,5 km/h (1 Bft) O-NO 0,00 h 0,051 mm 0,0 UV-I 0 W/m 6,2 C 10,2 C 10,5 km/h (2 Bft)
20.04.2014 04:00 9,3 C 80 % 1008,5 hPa 0,0 l/m 3,5 km/h (1 Bft) O-NO 0,00 h 0,000 mm 0,0 UV-I 0 W/m 5,9 C 9,3 C 7,0 km/h (2 Bft)
20.04.2014 05:00 8,4 C 84 % 1008,2 hPa 0,0 l/m 3,4 km/h (1 Bft) O-NO 0,00 h 0,025 mm 0,0 UV-I 0 W/m 5,8 C 8,4 C 7,0 km/h (2 Bft)
20.04.2014 06:00 8,3 C 85 % 1007,9 hPa 0,0 l/m 4,5 km/h (1 Bft) O 0,00 h 0,000 mm 0,0 UV-I 15 W/m 5,9 C 8,1 C 9,1 km/h (2 Bft)
20.04.2014 07:00 9,0 C 84 % 1008,2 hPa 0,0 l/m 6,7 km/h (2 Bft) O-NO 0,77 h 0,025 mm 0,5 UV-I 73 W/m 6,4 C 8,2 C 12,2 km/h (2 Bft)
20.04.2014 08:00 10,5 C 79 % 1008,6 hPa 0,0 l/m 4,4 km/h (1 Bft) O 1,00 h 0,051 mm 0,6 UV-I 161 W/m 7,0 C 10,3 C 8,3 km/h (2 Bft)
20.04.2014 09:00 11,5 C 76 % 1008,4 hPa 0,0 l/m 5,1 km/h (1 Bft) O-NO 1,00 h 0,076 mm 1,7 UV-I 334 W/m 7,4 C 11,2 C 9,5 km/h (2 Bft)
20.04.2014 10:00 13,7 C 64 % 1008,3 hPa 0,0 l/m 12,0 km/h (2 Bft) O-SO 1,00 h 0,203 mm 3,2 UV-I 710 W/m 7,0 C 10,9 C 20,2 km/h (4 Bft)
20.04.2014 11:00 15,2 C 57 % 1008,2 hPa 0,0 l/m 11,7 km/h (2 Bft) SO 1,00 h 0,381 mm 4,2 UV-I 783 W/m 6,7 C 12,7 C 19,0 km/h (3 Bft)
20.04.2014 12:00 15,7 C 53 % 1008,0 hPa 0,0 l/m 12,0 km/h (2 Bft) SO 1,00 h 0,457 mm 4,0 UV-I 614 W/m 6,1 C 13,2 C 20,5 km/h (4 Bft)
20.04.2014 13:00 16,2 C 50 % 1007,7 hPa 0,0 l/m 11,3 km/h (2 Bft) SO 1,00 h 0,381 mm 4,0 UV-I 578 W/m 5,7 C 14,1 C 19,8 km/h (3 Bft)
20.04.2014 14:00 16,9 C 49 % 1007,3 hPa 0,0 l/m 10,7 km/h (2 Bft) O-NO 1,00 h 0,381 mm 3,3 UV-I 549 W/m 6,1 C 15,0 C 18,7 km/h (3 Bft)
20.04.2014 15:00 16,8 C 46 % 1007,2 hPa 0,0 l/m 12,4 km/h (3 Bft) O 1,00 h 0,356 mm 3,1 UV-I 584 W/m 5,1 C 14,4 C 21,3 km/h (4 Bft)
20.04.2014 16:00 15,8 C 50 % 1007,3 hPa 0,0 l/m 11,1 km/h (2 Bft) O 1,00 h 0,406 mm 2,1 UV-I 440 W/m 5,3 C 13,6 C 19,9 km/h (4 Bft)
20.04.2014 17:00 15,5 C 49 % 1007,1 hPa 0,0 l/m 9,0 km/h (2 Bft) O 1,00 h 0,279 mm 1,3 UV-I 382 W/m 4,9 C 14,2 C 15,8 km/h (3 Bft)
20.04.2014 18:00 15,1 C 50 % 1006,6 hPa 0,0 l/m 5,7 km/h (1 Bft) O-NO 0,23 h 0,254 mm 0,8 UV-I 79 W/m 4,7 C 14,7 C 11,3 km/h (2 Bft)
20.04.2014 19:00 13,9 C 56 % 1006,4 hPa 0,0 l/m 4,0 km/h (1 Bft) O-NO 0,00 h 0,076 mm 0,0 UV-I 24 W/m 5,2 C 13,7 C 7,6 km/h (2 Bft)
20.04.2014 20:00 12,6 C 62 % 1006,6 hPa 0,0 l/m 5,9 km/h (2 Bft) O-NO 0,00 h 0,051 mm 0,0 UV-I 6 W/m 5,6 C 12,0 C 11,2 km/h (2 Bft)
20.04.2014 21:00 11,5 C 67 % 1006,9 hPa 0,0 l/m 5,3 km/h (1 Bft) O-NO 0,00 h 0,025 mm 0,0 UV-I 0 W/m 5,5 C 11,2 C 9,8 km/h (2 Bft)
20.04.2014 22:00 9,8 C 75 % 1006,9 hPa 0,0 l/m 2,1 km/h (1 Bft) O-NO 0,00 h 0,025 mm 0,0 UV-I 0 W/m 5,6 C 9,7 C 4,6 km/h (1 Bft)
20.04.2014 23:00 8,9 C 78 % 1006,9 hPa 0,0 l/m 1,6 km/h (1 Bft) N-NO 0,00 h 0,025 mm 0,0 UV-I 0 W/m 5,3 C 8,9 C 3,7 km/h (1 Bft)
Min-Datum _ 17.04.14 17.04.14 20.04.14 - 14.04.14 - - - - - 17.04.14 15.04.14 14.04.14
_ Min-Zeit 05:40 15:35 19:27 - 20:31 - - - - - 04:55 10:09 20:32
Minimum _ -3,3 C 33 % 1006,2 hPa - 0,0 km/h (0 Bft) - - - - - -4,5 C -5,6 C 0,0 km/h (0 Bft)
Max-Datum _ 19.04.14 19.04.14 16.04.14 18.04.14 14.04.14 - 20.04.14 19.04.14 16.04.14 16.04.14 19.04.14 19.04.14 14.04.14
_ Max-Zeit 15:30 06:58 23:25 10:10 17:44 - 07:56 15:00 12:26 13:17 13:04 15:25 17:44
Maximum _ 19,3 C 96 % 1030,0 hPa 2,0 l/m 37,0 km/h
W-NW (5 Bft)
- 0,08 h 0,483 mm 5,7 UV-I 1134 W/m 9,6 C 19,0 C 53,1 km/h
NW (7 Bft)
Durchschnitt _ 6,5 C 74 % 1017,0 hPa #10,6 l/m 6,2 km/h (2 Bft) N #70:11 h #16,146 mm 2,0 UV-I 258 W/m 1,8 C 5,3 C 10,0 km/h (2 Bft)